Airport View

Enter AWOS ICAO identifier for current METAR.

ex. KFNL

KLNK 112054Z 11011KT 10SM CLR 02/M06 A3029 RMK AO2 SLP271 T00171061 56030

11 Dec 2019 21:53

Phone: 402-474-9214

Other Area AWOS: KAHQ - KBIE - KMLE - KFET

TAF AMD KLNK 111756Z 1118/1218 10010KT P6SM FEW250 FM120300 15009KT P6SM FEW250 WS020/21053KT FM120900 20011KT P6SM OVC040 FM121500 24008KT P6SM BKN250